createdAt,value
2018-11-28T00:00:30.834Z,27.07
2018-11-28T00:03:02.205Z,23.23
2018-11-28T00:05:31.058Z,24.30
2018-11-28T00:07:59.938Z,26.73
2018-11-28T00:10:28.781Z,26.57
2018-11-28T00:12:57.649Z,30.73
2018-11-28T00:15:26.497Z,23.90
2018-11-28T00:17:55.361Z,28.20
2018-11-28T00:20:24.417Z,26.23
2018-11-28T00:22:53.283Z,28.80
2018-11-28T00:25:22.122Z,28.83
2018-11-28T00:27:50.973Z,26.37
2018-11-28T00:30:21.983Z,27.40
2018-11-28T00:32:50.821Z,24.10
2018-11-28T00:35:21.069Z,23.50
2018-11-28T00:37:50.000Z,29.53
2018-11-28T00:40:20.541Z,23.70
2018-11-28T00:42:49.453Z,25.90
2018-11-28T00:45:22.191Z,30.40
2018-11-28T00:47:51.090Z,26.27
2018-11-28T00:50:21.789Z,25.90
2018-11-28T00:52:50.649Z,28.43
2018-11-28T00:55:19.538Z,28.27
2018-11-28T00:57:48.394Z,26.60
2018-11-28T01:00:21.105Z,26.00
2018-11-28T01:02:50.549Z,26.43
2018-11-28T01:05:19.394Z,26.70
2018-11-28T01:07:53.368Z,29.83
2018-11-28T01:10:23.589Z,31.83
2018-11-28T01:12:53.653Z,25.10
2018-11-28T01:15:22.590Z,25.60
2018-11-28T01:17:51.468Z,20.47
2018-11-28T01:20:22.165Z,24.30
2018-11-28T01:22:51.028Z,25.03
2018-11-28T01:25:21.966Z,22.57
2018-11-28T01:27:51.202Z,21.30
2018-11-28T01:30:23.684Z,24.87
2018-11-28T01:32:52.555Z,28.53
2018-11-28T01:35:22.035Z,33.40
2018-11-28T01:37:50.926Z,26.17
2018-11-28T01:40:22.511Z,24.30
2018-11-28T01:42:51.372Z,23.40
2018-11-28T01:45:21.710Z,32.40
2018-11-28T01:47:50.548Z,31.80
2018-11-28T01:50:20.718Z,26.30
2018-11-28T01:52:49.709Z,22.53
2018-11-28T01:55:20.818Z,28.13
2018-11-28T01:57:49.665Z,25.93
2018-11-28T02:00:26.764Z,20.60
2018-11-28T02:03:00.429Z,26.10
2018-11-28T02:05:29.258Z,28.63
2018-11-28T02:07:58.138Z,25.33
2018-11-28T02:10:27.072Z,28.50
2018-11-28T02:12:56.825Z,22.90
2018-11-28T02:15:26.679Z,26.50
2018-11-28T02:17:56.797Z,21.03
2018-11-28T02:20:25.677Z,23.97
2018-11-28T02:22:54.563Z,24.50
2018-11-28T02:25:23.429Z,25.90
2018-11-28T02:27:52.301Z,24.20
2018-11-28T02:30:21.433Z,21.97
2018-11-28T02:32:50.613Z,24.83
2018-11-28T02:35:20.021Z,21.33
2018-11-28T02:37:49.648Z,22.23
2018-11-28T02:40:19.471Z,23.57
2018-11-28T02:42:50.292Z,23.00
2018-11-28T02:45:20.351Z,22.87
2018-11-28T02:47:49.536Z,25.60
2018-11-28T02:50:18.382Z,20.87
2018-11-28T02:52:47.298Z,21.47
2018-11-28T02:55:17.433Z,27.50
2018-11-28T02:57:48.070Z,25.10
2018-11-28T03:00:23.459Z,22.00
2018-11-28T03:02:52.505Z,24.50
2018-11-28T03:05:21.597Z,24.40
2018-11-28T03:07:50.447Z,24.53
2018-11-28T03:10:21.941Z,23.10
2018-11-28T03:12:50.921Z,24.03
2018-11-28T03:15:27.101Z,23.80
2018-11-28T03:17:55.991Z,21.50
2018-11-28T03:20:25.107Z,23.17
2018-11-28T03:22:53.951Z,26.35
2018-11-28T03:25:22.865Z,25.00
2018-11-28T03:27:52.273Z,21.50
2018-11-28T03:30:21.166Z,34.80
2018-11-28T03:32:50.090Z,26.60
2018-11-28T03:35:18.850Z,24.47
2018-11-28T03:37:47.707Z,24.80
2018-11-28T03:40:16.585Z,24.87
2018-11-28T03:42:45.425Z,23.75
2018-11-28T03:45:15.601Z,24.27
2018-11-28T03:47:45.504Z,28.73
2018-11-28T03:50:15.527Z,23.83
2018-11-28T03:52:44.521Z,23.25
2018-11-28T03:55:14.637Z,24.25
2018-11-28T03:57:45.872Z,28.05
2018-11-28T04:00:20.526Z,27.35
2018-11-28T04:02:50.096Z,29.02
2018-11-28T04:05:18.997Z,24.35
2018-11-28T04:07:47.878Z,28.73
2018-11-28T04:10:16.995Z,25.50
2018-11-28T04:12:46.234Z,28.12
2018-11-28T04:15:22.266Z,25.45
2018-11-28T04:17:51.158Z,29.15
2018-11-28T04:20:22.366Z,25.65
2018-11-28T04:22:51.439Z,22.82
2018-11-28T04:25:21.937Z,34.23
2018-11-28T04:27:51.425Z,26.52
2018-11-28T04:30:21.855Z,27.22
2018-11-28T04:32:51.737Z,30.75
2018-11-28T04:35:20.623Z,30.88
2018-11-28T04:37:49.538Z,31.70
2018-11-28T04:40:19.822Z,32.90
2018-11-28T04:42:49.345Z,29.98
2018-11-28T04:45:20.629Z,33.08
2018-11-28T04:47:49.899Z,34.23
2018-11-28T04:50:18.794Z,36.58
2018-11-28T04:52:47.677Z,41.83
2018-11-28T04:55:17.976Z,41.28
2018-11-28T04:57:47.188Z,37.13
2018-11-28T05:00:31.865Z,38.67
2018-11-28T05:03:00.778Z,32.28
2018-11-28T05:05:29.675Z,31.62
2018-11-28T05:07:58.526Z,38.13
2018-11-28T05:10:29.970Z,34.13
2018-11-28T05:12:59.992Z,38.70
2018-11-28T05:15:30.555Z,40.12
2018-11-28T05:17:59.487Z,37.50
2018-11-28T05:20:33.741Z,37.23
2018-11-28T05:23:03.775Z,44.77
2018-11-28T05:25:33.971Z,36.38
2018-11-28T05:28:02.907Z,34.58
2018-11-28T05:30:32.979Z,42.62
2018-11-28T05:33:02.226Z,39.92
2018-11-28T05:35:34.096Z,41.00
2018-11-28T05:38:05.837Z,49.23
2018-11-28T05:40:34.705Z,38.65
2018-11-28T05:43:03.570Z,38.53
2018-11-28T05:45:32.445Z,43.95
2018-11-28T05:48:01.989Z,44.05
2018-11-28T05:50:30.867Z,41.40
2018-11-28T05:52:59.697Z,47.03
2018-11-28T05:55:28.566Z,42.98
2018-11-28T05:57:57.431Z,41.25
2018-11-28T06:00:37.818Z,46.85
2018-11-28T06:03:08.407Z,44.85
2018-11-28T06:05:37.348Z,46.90
2018-11-28T06:08:07.907Z,43.98
2018-11-28T06:10:36.831Z,40.70
2018-11-28T06:13:05.751Z,43.42
2018-11-28T06:15:34.679Z,38.98
2018-11-28T06:18:03.606Z,42.73
2018-11-28T06:20:32.469Z,42.53
2018-11-28T06:23:01.409Z,47.53
2018-11-28T06:25:30.314Z,47.35
2018-11-28T06:27:59.207Z,43.78
2018-11-28T06:30:28.072Z,48.23
2018-11-28T06:32:56.977Z,45.25
2018-11-28T06:35:25.810Z,49.00
2018-11-28T06:37:54.641Z,50.28
2018-11-28T06:40:24.418Z,50.75
2018-11-28T06:42:52.435Z,46.45
2018-11-28T06:45:22.606Z,52.17
2018-11-28T06:47:51.441Z,45.75
2018-11-28T06:50:20.698Z,49.83
2018-11-28T06:52:51.217Z,46.00
2018-11-28T06:55:21.624Z,48.85
2018-11-28T06:57:50.481Z,48.42
2018-11-28T07:00:20.910Z,47.98
2018-11-28T07:02:51.286Z,39.70
2018-11-28T07:05:20.755Z,47.80
2018-11-28T07:07:49.823Z,47.05
2018-11-28T07:10:20.193Z,38.70
2018-11-28T07:12:49.191Z,49.90
2018-11-28T07:15:20.842Z,43.50
2018-11-28T07:17:49.749Z,54.42
2018-11-28T07:20:18.677Z,47.78
2018-11-28T07:22:47.553Z,42.67
2018-11-28T07:25:18.678Z,42.27
2018-11-28T07:27:49.928Z,48.20
2018-11-28T07:30:20.341Z,55.30
2018-11-28T07:32:52.065Z,44.40
2018-11-28T07:35:20.984Z,52.50
2018-11-28T07:37:49.885Z,42.38
2018-11-28T07:40:21.559Z,48.15
2018-11-28T07:43:11.728Z,44.40
2018-11-28T07:45:43.781Z,48.40
2018-11-28T07:48:12.701Z,50.30
2018-11-28T07:50:41.673Z,40.75
2018-11-28T07:53:10.613Z,54.58
2018-11-28T07:55:39.553Z,72.90
2018-11-28T07:58:08.463Z,57.55
2018-11-28T08:00:38.059Z,58.85
2018-11-28T08:03:09.315Z,54.20
2018-11-28T08:05:39.184Z,47.00
2018-11-28T08:08:10.751Z,41.77
2018-11-28T08:10:39.597Z,48.30
2018-11-28T08:13:09.255Z,41.28
2018-11-28T08:15:38.131Z,36.40
2018-11-28T08:18:07.029Z,43.17
2018-11-28T08:20:36.246Z,41.53
2018-11-28T08:23:05.418Z,55.90
2018-11-28T08:25:34.721Z,58.02
2018-11-28T08:28:03.678Z,49.90
2018-11-28T08:30:32.582Z,46.65
2018-11-28T08:33:01.424Z,46.60
2018-11-28T08:35:30.460Z,37.35
2018-11-28T08:37:59.340Z,38.25
2018-11-28T08:40:28.307Z,28.92
2018-11-28T08:42:58.256Z,36.55
2018-11-28T08:45:27.214Z,34.95
2018-11-28T08:47:57.910Z,26.17
2018-11-28T08:50:29.945Z,37.83
2018-11-28T08:52:58.797Z,33.30
2018-11-28T08:55:27.680Z,29.93
2018-11-28T08:57:56.662Z,26.87
2018-11-28T09:00:27.375Z,32.57
2018-11-28T09:02:57.607Z,31.17
2018-11-28T09:05:26.579Z,31.70
2018-11-28T09:07:55.662Z,28.60
2018-11-28T09:10:24.605Z,26.30
2018-11-28T09:12:53.441Z,28.77
2018-11-28T09:15:26.834Z,30.10
2018-11-28T09:17:56.385Z,24.70
2018-11-28T09:20:25.412Z,23.97
2018-11-28T09:22:54.281Z,25.73
2018-11-28T09:25:23.186Z,24.80
2018-11-28T09:27:54.861Z,25.50
2018-11-28T09:30:23.736Z,31.73
2018-11-28T09:32:52.659Z,24.23
2018-11-28T09:35:21.599Z,28.30
2018-11-28T09:37:50.459Z,24.83
2018-11-28T09:40:24.717Z,27.73
2018-11-28T09:42:57.098Z,23.37
2018-11-28T09:45:26.122Z,23.97
2018-11-28T09:47:55.011Z,31.77
2018-11-28T09:50:25.328Z,21.40
2018-11-28T09:52:54.216Z,27.73
2018-11-28T09:55:25.546Z,25.53
2018-11-28T09:57:54.527Z,25.73
2018-11-28T10:00:31.456Z,23.93
2018-11-28T10:03:01.479Z,25.77
2018-11-28T10:05:34.173Z,25.50
2018-11-28T10:08:03.376Z,21.17
2018-11-28T10:10:32.307Z,22.30
2018-11-28T10:13:01.175Z,18.90
2018-11-28T10:15:35.460Z,17.03
2018-11-28T10:17:59.302Z,22.70
2018-11-28T10:20:28.178Z,20.90
2018-11-28T10:22:57.073Z,23.23
2018-11-28T10:25:27.120Z,19.03
2018-11-28T10:28:04.212Z,18.57
2018-11-28T10:30:36.272Z,23.17
2018-11-28T10:33:09.088Z,15.80
2018-11-28T10:35:39.001Z,19.23
2018-11-28T10:38:08.302Z,18.20
2018-11-28T10:40:37.880Z,17.33
2018-11-28T10:43:08.576Z,15.67
2018-11-28T10:45:37.876Z,17.77
2018-11-28T10:48:09.119Z,18.40
2018-11-28T10:50:38.010Z,17.07
2018-11-28T10:53:07.487Z,16.23
2018-11-28T10:55:36.406Z,14.70
2018-11-28T10:58:06.829Z,14.43
2018-11-28T11:00:41.058Z,17.67
2018-11-28T11:03:15.433Z,15.90
2018-11-28T11:05:49.617Z,18.70
2018-11-28T11:08:23.773Z,16.40
2018-11-28T11:11:31.446Z,13.50
2018-11-28T11:14:05.655Z,14.17
2018-11-28T11:16:34.489Z,23.67
2018-11-28T11:19:03.329Z,21.90
2018-11-28T11:21:32.185Z,15.50
2018-11-28T11:24:01.090Z,16.93
2018-11-28T11:26:29.958Z,15.10
2018-11-28T11:28:58.765Z,11.97
2018-11-28T11:31:27.647Z,17.80
2018-11-28T11:33:56.571Z,14.30
2018-11-28T11:36:25.442Z,13.73
2018-11-28T11:38:54.460Z,23.20
2018-11-28T11:41:23.334Z,15.00
2018-11-28T11:43:52.165Z,17.53
2018-11-28T11:46:20.986Z,11.10
2018-11-28T11:48:49.825Z,14.10
2018-11-28T11:51:18.670Z,15.37
2018-11-28T11:53:47.549Z,16.47
2018-11-28T11:56:16.402Z,14.50
2018-11-28T11:58:45.339Z,14.57
2018-11-28T12:01:14.214Z,14.77
2018-11-28T12:03:43.089Z,16.40
2018-11-28T12:06:11.914Z,16.30
2018-11-28T12:08:40.750Z,13.80
2018-11-28T12:11:09.702Z,14.07
2018-11-28T12:13:38.581Z,14.53
2018-11-28T12:16:07.734Z,22.67
2018-11-28T12:18:36.525Z,25.60
2018-11-28T12:21:07.270Z,15.80
2018-11-28T12:23:36.653Z,14.83
2018-11-28T12:26:05.538Z,14.80
2018-11-28T12:28:34.466Z,14.10
2018-11-28T12:31:03.391Z,16.53
2018-11-28T12:33:32.237Z,17.17
2018-11-28T12:36:01.135Z,16.20
2018-11-28T12:38:30.035Z,16.63
2018-11-28T12:40:59.541Z,16.87
2018-11-28T12:43:29.630Z,15.57
2018-11-28T12:45:57.289Z,12.67
2018-11-28T12:48:26.129Z,15.03
2018-11-28T12:50:55.010Z,13.37
2018-11-28T12:53:23.878Z,27.53
2018-11-28T12:55:52.726Z,17.43
2018-11-28T12:58:21.987Z,18.67
2018-11-28T13:00:50.842Z,15.57
2018-11-28T13:03:19.957Z,14.43
2018-11-28T13:05:48.969Z,12.17
2018-11-28T13:08:17.858Z,12.67
2018-11-28T13:10:46.697Z,12.20
2018-11-28T13:13:15.578Z,15.97
2018-11-28T13:15:44.484Z,14.70
2018-11-28T13:18:13.359Z,14.40
2018-11-28T13:20:42.930Z,13.07
2018-11-28T13:23:13.621Z,13.83
2018-11-28T13:25:42.477Z,14.43
2018-11-28T13:28:11.321Z,16.10
2018-11-28T13:30:40.477Z,13.70
2018-11-28T13:33:09.754Z,16.47
2018-11-28T13:35:38.701Z,14.27
2018-11-28T13:38:11.359Z,16.80
2018-11-28T13:40:40.737Z,16.90
2018-11-28T13:43:09.558Z,14.00
2018-11-28T13:45:47.337Z,15.37
2018-11-28T13:48:17.033Z,14.13
2018-11-28T13:50:45.969Z,14.00
2018-11-28T13:53:17.057Z,13.33
2018-11-28T13:58:26.749Z,12.83
2018-11-28T14:00:55.655Z,13.83
2018-11-28T14:03:24.601Z,14.53
2018-11-28T14:05:53.513Z,12.37
2018-11-28T14:08:22.405Z,12.57
2018-11-28T14:10:51.262Z,13.60
2018-11-28T14:13:20.150Z,14.07
2018-11-28T14:15:49.069Z,13.70
2018-11-28T14:18:19.702Z,16.43
2018-11-28T14:20:48.596Z,18.87
2018-11-28T14:23:17.535Z,17.10
2018-11-28T14:25:46.502Z,14.90
2018-11-28T14:28:15.335Z,14.30
2018-11-28T14:30:45.163Z,15.60
2018-11-28T14:33:14.068Z,14.00
2018-11-28T14:35:42.954Z,15.43
2018-11-28T14:38:11.840Z,16.50
2018-11-28T14:40:40.697Z,14.77
2018-11-28T14:43:09.678Z,14.37
2018-11-28T14:45:38.640Z,15.50
2018-11-28T14:48:07.575Z,18.77
2018-11-28T14:50:36.669Z,15.57
2018-11-28T14:53:05.655Z,18.30
2018-11-28T14:55:39.887Z,17.67
2018-11-28T14:58:10.924Z,18.50
2018-11-28T15:00:40.753Z,12.73
2018-11-28T15:03:25.241Z,13.53
2018-11-28T15:06:25.753Z,13.50
2018-11-28T15:08:59.299Z,16.10
2018-11-28T15:11:28.268Z,13.27
2018-11-28T15:13:57.257Z,15.47
2018-11-28T15:16:26.177Z,16.60
2018-11-28T15:18:55.114Z,14.30
2018-11-28T15:21:24.010Z,15.50
2018-11-28T15:23:52.899Z,13.33
2018-11-28T15:26:21.772Z,14.07
2018-11-28T15:28:50.679Z,18.87
2018-11-28T15:31:19.567Z,15.10
2018-11-28T15:33:48.516Z,14.10
2018-11-28T15:36:17.405Z,19.03
2018-11-28T15:38:46.285Z,14.83
2018-11-28T15:41:15.242Z,14.40
2018-11-28T15:43:44.182Z,16.97
2018-11-28T15:46:15.082Z,15.95
2018-11-28T15:48:42.069Z,14.00
2018-11-28T15:51:10.954Z,16.10
2018-11-28T15:53:39.872Z,12.87
2018-11-28T15:56:08.735Z,15.18
2018-11-28T15:58:37.802Z,12.43
2018-11-28T16:01:07.098Z,14.73
2018-11-28T16:03:36.124Z,16.25
2018-11-28T16:06:05.239Z,17.70
2018-11-28T16:08:34.202Z,17.12
2018-11-28T16:11:07.924Z,13.90
2018-11-28T16:13:36.797Z,18.67
2018-11-28T16:16:07.008Z,11.93
2018-11-28T16:18:35.925Z,22.35
2018-11-28T16:21:05.039Z,13.15
2018-11-28T16:23:34.023Z,16.35
2018-11-28T16:26:02.945Z,14.87
2018-11-28T16:28:31.909Z,15.90
2018-11-28T16:31:00.888Z,13.43
2018-11-28T16:33:29.802Z,16.65
2018-11-28T16:35:58.961Z,26.07
2018-11-28T16:38:27.874Z,152.97
2018-11-28T16:40:56.803Z,47.10
2018-11-28T16:43:25.794Z,40.70
2018-11-28T16:45:54.787Z,27.45
2018-11-28T16:48:24.793Z,16.65
2018-11-28T16:50:53.785Z,13.75
2018-11-28T16:53:22.807Z,18.30
2018-11-28T16:55:51.737Z,19.15
2018-11-28T16:58:20.612Z,25.77
2018-11-28T17:00:49.506Z,30.02
2018-11-28T17:03:18.389Z,24.43
2018-11-28T17:05:47.326Z,25.88
2018-11-28T17:08:16.346Z,35.63
2018-11-28T17:10:45.266Z,23.85
2018-11-28T17:13:14.234Z,27.35
2018-11-28T17:15:43.153Z,18.17
2018-11-28T17:18:12.035Z,19.23
2018-11-28T17:20:42.795Z,19.62
2018-11-28T17:23:11.677Z,17.75
2018-11-28T17:25:40.591Z,16.55
2018-11-28T17:28:09.546Z,15.85
2018-11-28T17:30:38.482Z,16.87
2018-11-28T17:33:07.438Z,16.97
2018-11-28T17:35:36.335Z,16.42
2018-11-28T17:38:05.616Z,17.15
2018-11-28T17:40:34.513Z,21.07
2018-11-28T17:43:03.584Z,18.02
2018-11-28T17:45:33.017Z,16.82
2018-11-28T17:48:01.936Z,17.98
2018-11-28T17:50:30.883Z,22.15
2018-11-28T17:53:08.257Z,16.52
2018-11-28T17:55:58.283Z,16.60
2018-11-28T17:58:27.178Z,17.32
2018-11-28T18:00:56.151Z,17.45
2018-11-28T18:03:25.028Z,20.80
2018-11-28T18:05:53.932Z,16.32
2018-11-28T18:08:22.790Z,18.42
2018-11-28T18:10:51.685Z,16.17
2018-11-28T18:13:20.586Z,22.48
2018-11-28T18:15:53.836Z,20.55
2018-11-28T18:18:26.572Z,21.68
2018-11-28T18:20:55.579Z,23.15
2018-11-28T18:23:24.429Z,17.42
2018-11-28T18:25:53.340Z,19.73
2018-11-28T18:28:22.292Z,23.47
2018-11-28T18:30:51.196Z,21.20
2018-11-28T18:33:20.125Z,18.65
2018-11-28T18:35:49.000Z,29.80
2018-11-28T18:38:17.923Z,19.30
2018-11-28T18:40:46.881Z,24.50
2018-11-28T18:43:15.749Z,17.12
2018-11-28T18:45:48.562Z,28.57
2018-11-28T18:48:17.421Z,20.23
2018-11-28T18:50:46.350Z,26.62
2018-11-28T18:53:15.330Z,25.57
2018-11-28T18:55:44.362Z,25.65
2018-11-28T18:58:14.147Z,24.47
2018-11-28T19:00:43.350Z,23.60
2018-11-28T19:03:12.438Z,22.48
2018-11-28T19:05:41.406Z,22.20
2018-11-28T19:08:10.325Z,25.95
2018-11-28T19:10:39.267Z,41.23
2018-11-28T19:13:08.252Z,25.77
2018-11-28T19:15:37.339Z,28.95
2018-11-28T19:18:07.097Z,27.98
2018-11-28T19:20:36.150Z,28.65
2018-11-28T19:23:05.300Z,26.77
2018-11-28T19:25:34.274Z,31.00
2018-11-28T19:28:03.147Z,27.48
2018-11-28T19:30:38.980Z,24.82
2018-11-28T19:33:10.845Z,27.62
2018-11-28T19:35:39.781Z,29.52
2018-11-28T19:38:11.605Z,31.62
2018-11-28T19:40:51.429Z,33.42
2018-11-28T19:43:21.606Z,33.50
2018-11-28T19:45:51.190Z,31.62
2018-11-28T19:48:20.079Z,37.75
2018-11-28T19:50:48.938Z,31.30
2018-11-28T19:53:17.918Z,34.03
2018-11-28T19:55:46.902Z,38.15
2018-11-28T19:58:16.489Z,28.75
2018-11-28T20:00:46.450Z,33.73
2018-11-28T20:03:15.344Z,37.17
2018-11-28T20:05:44.169Z,37.67
2018-11-28T20:08:13.411Z,43.00
2018-11-28T20:10:42.317Z,32.70
2018-11-28T20:13:11.519Z,39.27
2018-11-28T20:15:44.206Z,36.10
2018-11-28T20:18:13.077Z,38.42
2018-11-28T20:20:41.998Z,42.58
2018-11-28T20:23:10.888Z,42.05
2018-11-28T20:25:39.845Z,43.48
2018-11-28T20:28:09.758Z,42.83
2018-11-28T20:30:44.611Z,41.33
2018-11-28T20:33:15.464Z,42.10
2018-11-28T20:35:46.086Z,45.70
2018-11-28T20:38:21.914Z,35.73
2018-11-28T20:40:50.893Z,49.23
2018-11-28T20:43:19.855Z,44.13
2018-11-28T20:45:48.703Z,46.45
2018-11-28T20:48:17.571Z,40.83
2018-11-28T20:50:46.586Z,48.70
2018-11-28T20:53:17.431Z,42.03
2018-11-28T20:55:46.821Z,42.67
2018-11-28T20:58:15.719Z,49.60
2018-11-28T21:00:44.592Z,50.70
2018-11-28T21:03:13.538Z,53.00
2018-11-28T21:05:42.519Z,46.92
2018-11-28T21:08:11.518Z,46.83
2018-11-28T21:10:41.175Z,44.67
2018-11-28T21:13:11.922Z,59.77
2018-11-28T21:15:42.087Z,56.58
2018-11-28T21:18:11.070Z,51.13
2018-11-28T21:20:41.778Z,51.45
2018-11-28T21:23:14.651Z,51.50
2018-11-28T21:25:43.586Z,58.95
2018-11-28T21:28:12.574Z,50.08
2018-11-28T21:30:41.505Z,46.05
2018-11-28T21:33:12.391Z,47.58
2018-11-28T21:35:46.288Z,53.60
2018-11-28T21:38:15.187Z,53.38
2018-11-28T21:40:44.157Z,45.30
2018-11-28T21:43:13.262Z,51.53
2018-11-28T21:45:42.182Z,59.50
2018-11-28T21:48:11.818Z,50.67
2018-11-28T21:50:40.794Z,47.20
2018-11-28T21:53:10.229Z,46.30
2018-11-28T21:55:39.129Z,49.45
2018-11-28T21:58:08.041Z,49.27
2018-11-28T22:00:37.550Z,46.92
2018-11-28T22:03:07.401Z,46.10
2018-11-28T22:05:36.317Z,40.20
2018-11-28T22:08:05.315Z,46.25
2018-11-28T22:10:34.353Z,44.85
2018-11-28T22:13:03.315Z,49.23
2018-11-28T22:15:32.198Z,55.35
2018-11-28T22:18:01.152Z,47.03
2018-11-28T22:20:30.057Z,58.08
2018-11-28T22:22:59.247Z,58.87
2018-11-28T22:25:28.354Z,49.60
2018-11-28T22:27:57.265Z,55.45
2018-11-28T22:30:28.593Z,117.22
2018-11-28T22:32:58.265Z,61.88
2018-11-28T22:35:27.263Z,61.23
2018-11-28T22:37:56.139Z,54.73
2018-11-28T22:40:28.962Z,47.00
2018-11-28T22:42:57.829Z,46.83
2018-11-28T22:45:29.520Z,54.40
2018-11-28T22:47:58.398Z,57.90
2018-11-28T22:50:27.316Z,52.67
2018-11-28T22:52:56.222Z,60.43
2018-11-28T22:55:25.212Z,52.30
2018-11-28T22:57:54.176Z,57.17
2018-11-28T23:00:29.551Z,61.50
2018-11-28T23:03:06.044Z,56.77
2018-11-28T23:05:37.653Z,53.40
2018-11-28T23:08:09.282Z,46.65
2018-11-28T23:10:38.793Z,49.77
2018-11-28T23:13:09.117Z,54.60
2018-11-28T23:15:37.976Z,54.27
2018-11-28T23:18:07.992Z,59.98
2018-11-28T23:20:37.186Z,59.95
2018-11-28T23:23:07.579Z,52.45
2018-11-28T23:25:37.114Z,61.05
2018-11-28T23:28:06.677Z,60.12
2018-11-28T23:30:36.021Z,63.15
2018-11-28T23:33:06.182Z,53.23
2018-11-28T23:35:35.141Z,62.50
2018-11-28T23:38:04.063Z,56.00
2018-11-28T23:40:32.945Z,60.92
2018-11-28T23:43:01.831Z,62.13
2018-11-28T23:45:31.828Z,68.72
2018-11-28T23:48:00.757Z,57.98
2018-11-28T23:50:29.722Z,66.67
2018-11-28T23:52:58.626Z,68.12
2018-11-28T23:55:30.851Z,64.27
2018-11-28T23:57:59.787Z,63.25
